Time;durP1;ratioP1;P1;durP2;ratioP2;P2;SDS_P1;SDS_P2;PMS_P1;PMS_P2;Temp;Humidity;BMP_temperature;BMP_pressure;BME280_temperature;BME280_humidity;BME280_pressure;Samples;Min_cycle;Max_cycle;Signal;HPM_P1;HPM_P2
2021/12/07 00:00:38;;;;;;;21.87;13.90;;;;;;;0.33;96.71;100444.50;5065345;28;20028;-62
2021/12/07 00:03:03;;;;;;;21.17;14.87;;;;;;;0.34;96.77;100451.41;5066815;28;20017;-61
2021/12/07 00:05:29;;;;;;;23.00;14.63;;;;;;;0.35;97.00;100459.13;5061867;28;20108;-62
2021/12/07 00:07:54;;;;;;;25.50;15.50;;;;;;;0.36;97.04;100454.72;5060024;28;20673;-62
2021/12/07 00:10:20;;;;;;;23.47;15.53;;;;;;;0.30;97.00;100446.41;5062694;28;20036;-62
2021/12/07 00:12:46;;;;;;;26.13;15.50;;;;;;;0.39;97.00;100451.88;5064987;28;20008;-62
2021/12/07 00:15:16;;;;;;;24.73;16.07;;;;;;;0.41;97.03;100460.44;5069949;28;20036;-62
2021/12/07 00:17:41;;;;;;;26.40;15.93;;;;;;;0.40;96.92;100449.16;5069342;28;20024;-61
2021/12/07 00:20:11;;;;;;;26.17;17.07;;;;;;;0.42;96.84;100456.88;5069723;28;20026;-61
2021/12/07 00:22:38;;;;;;;25.60;16.58;;;;;;;0.43;96.99;100461.16;5068028;28;20031;-62
2021/12/07 00:25:05;;;;;;;25.90;17.50;;;;;;;0.42;96.99;100462.94;5062865;28;20025;-62
2021/12/07 00:27:30;;;;;;;27.47;17.43;;;;;;;0.44;97.15;100461.03;5058822;28;20028;-62
2021/12/07 00:29:56;;;;;;;27.23;17.73;;;;;;;0.44;97.07;100465.41;5056260;28;20040;-62
2021/12/07 00:35:19;;;;;;;30.73;19.63;;;;;;;0.48;97.27;100470.28;5064994;28;20028;-62
2021/12/07 00:37:48;;;;;;;29.77;19.57;;;;;;;0.50;97.16;100472.78;5057253;28;20051;-62
2021/12/07 00:40:17;;;;;;;34.38;21.05;;;;;;;0.51;97.35;100472.69;5070295;28;20416;-61
2021/12/07 00:42:43;;;;;;;33.17;20.88;;;;;;;0.55;97.59;100478.50;5070886;28;20035;-61
2021/12/07 00:45:09;;;;;;;33.53;21.37;;;;;;;0.59;97.61;100482.56;5070687;28;20019;-62
2021/12/07 00:47:35;;;;;;;34.70;21.80;;;;;;;0.57;97.88;100477.44;5070334;28;20016;-61
2021/12/07 00:50:01;;;;;;;35.87;22.23;;;;;;;0.64;97.79;100487.44;5069097;28;20033;-62
2021/12/07 00:52:26;;;;;;;39.17;23.97;;;;;;;0.68;97.76;100486.25;5070247;28;20065;-62
2021/12/07 00:54:52;;;;;;;40.67;23.60;;;;;;;0.71;98.01;100492.09;5070051;28;20024;-61
2021/12/07 00:57:17;;;;;;;39.73;23.37;;;;;;;0.75;98.13;100498.75;5070202;28;20455;-62
2021/12/07 00:59:42;;;;;;;43.00;22.87;;;;;;;0.79;98.13;100494.94;5068939;28;20373;-62
2021/12/07 01:02:08;;;;;;;43.07;24.23;;;;;;;0.80;98.06;100490.53;5070196;28;20489;-62
2021/12/07 01:04:33;;;;;;;43.53;24.07;;;;;;;0.88;98.26;100514.34;5068498;28;20021;-62
2021/12/07 01:07:06;;;;;;;41.10;23.10;;;;;;;0.91;98.24;100522.78;5069089;28;20036;-62
2021/12/07 01:24:40;;;;;;;40.13;23.47;;;;;;;1.00;98.32;100517.78;5066855;28;20103;-61
2021/12/07 01:26:09;;;;;;;37.87;21.43;;;;;;;1.35;98.51;100541.22;5070113;28;20602;-62
2021/12/07 01:28:40;;;;;;;38.67;21.03;;;;;;;1.40;98.56;100541.69;5062907;28;20100;-61
2021/12/07 01:31:22;;;;;;;42.70;20.37;;;;;;;1.44;98.74;100554.41;5065965;28;20077;-62
2021/12/07 01:34:11;;;;;;;38.73;20.23;;;;;;;1.51;98.59;100549.56;5067011;28;20115;-62
2021/12/07 01:37:02;;;;;;;39.03;19.05;;;;;;;1.58;98.45;100553.34;5061312;28;20017;-62
2021/12/07 01:47:42;;;;;;;35.77;15.57;;;;;;;1.89;98.34;100571.88;5058294;28;20733;-61
2021/12/07 01:50:32;;;;;;;28.60;13.90;;;;;;;1.95;97.99;100584.50;5068433;28;20029;-61
2021/12/07 01:53:17;;;;;;;36.23;15.13;;;;;;;1.98;97.91;100577.22;5069386;28;20020;-62
2021/12/07 02:01:00;;;;;;;37.07;15.87;;;;;;;2.14;98.02;100596.00;5071159;28;20591;-62
2021/12/07 02:03:26;;;;;;;32.53;15.73;;;;;;;2.15;97.81;100602.09;5068144;28;20603;-61
2021/12/07 02:05:52;;;;;;;39.43;16.30;;;;;;;2.17;98.12;100595.75;5055878;28;20016;-62
2021/12/07 02:08:17;;;;;;;36.20;16.37;;;;;;;2.20;97.92;100599.09;5067723;28;20032;-62
2021/12/07 02:10:43;;;;;;;36.90;15.07;;;;;;;2.23;97.82;100607.53;5068420;28;20616;-62
2021/12/07 02:15:49;;;;;;;33.13;14.33;;;;;;;2.33;98.09;100615.50;5067004;28;20028;-62
2021/12/07 02:18:14;;;;;;;32.30;13.80;;;;;;;2.31;97.71;100609.53;5061745;28;20016;-62
2021/12/07 02:20:40;;;;;;;33.50;12.67;;;;;;;2.34;97.75;100617.16;5063266;28;20479;-62
2021/12/07 02:23:05;;;;;;;36.70;12.73;;;;;;;2.38;97.63;100627.28;5067168;28;20021;-62
2021/12/07 02:25:32;;;;;;;31.77;10.60;;;;;;;2.43;97.43;100627.72;5061136;28;20024;-62
2021/12/07 02:27:59;;;;;;;28.87;10.73;;;;;;;2.46;97.73;100631.91;5055566;28;20021;-62
2021/12/07 02:30:26;;;;;;;23.70;9.50;;;;;;;2.46;97.28;100637.13;5068235;28;20024;-62
2021/12/07 02:32:54;;;;;;;28.43;8.37;;;;;;;2.49;97.18;100636.88;5064761;28;20027;-62
2021/12/07 02:35:25;;;;;;;26.47;8.23;;;;;;;2.53;97.55;100635.69;5064101;28;20674;-62
2021/12/07 02:37:51;;;;;;;31.50;7.53;;;;;;;2.54;96.98;100639.97;5063551;28;20039;-62
2021/12/07 02:40:17;;;;;;;26.77;7.00;;;;;;;2.54;97.08;100647.00;5066685;28;20033;-62
2021/12/07 02:42:44;;;;;;;33.43;7.17;;;;;;;2.51;96.97;100644.63;5066926;28;20016;-62
2021/12/07 02:45:10;;;;;;;26.33;6.87;;;;;;;2.51;96.99;100648.06;5066609;28;20476;-61
2021/12/07 02:47:36;;;;;;;26.17;5.90;;;;;;;2.55;96.99;100653.91;5065756;28;20035;-62
2021/12/07 02:50:03;;;;;;;22.00;5.90;;;;;;;2.57;96.91;100660.69;5068658;28;20043;-62
2021/12/07 02:52:28;;;;;;;21.63;6.07;;;;;;;2.55;96.69;100667.00;5071194;28;20387;-62
2021/12/07 02:54:54;;;;;;;30.10;6.07;;;;;;;2.56;96.41;100666.06;5069706;28;20501;-62
2021/12/07 02:57:21;;;;;;;30.50;6.23;;;;;;;2.55;96.69;100670.47;5069065;28;20105;-62
2021/12/07 02:59:57;;;;;;;23.73;6.03;;;;;;;2.59;96.70;100674.50;5051191;28;20029;-62
2021/12/07 03:02:23;;;;;;;21.87;5.60;;;;;;;2.59;96.30;100679.75;5070673;28;20024;-62
2021/12/07 03:05:20;;;;;;;27.17;4.93;;;;;;;2.56;96.50;100677.38;5069671;28;20008;-62
2021/12/07 03:07:48;;;;;;;24.97;5.13;;;;;;;2.62;96.63;100683.94;5069231;28;20098;-62
2021/12/07 03:26:38;;;;;;;25.77;5.17;;;;;;;2.57;95.46;100707.03;5070463;28;20059;-62
2021/12/07 03:29:04;;;;;;;20.00;4.53;;;;;;;2.59;95.94;100710.34;5069645;28;20491;-62
2021/12/07 03:31:30;;;;;;;26.50;4.93;;;;;;;2.55;95.80;100709.78;5067982;28;20706;-62
2021/12/07 03:33:56;;;;;;;23.77;4.50;;;;;;;2.51;95.71;100710.97;5069705;28;20028;-62
2021/12/07 03:36:23;;;;;;;25.23;4.80;;;;;;;2.52;95.49;100715.25;5080263;28;20496;-62
2021/12/07 03:38:48;;;;;;;26.50;5.03;;;;;;;2.54;95.94;100728.25;5070804;28;20028;-62
2021/12/07 03:41:14;;;;;;;21.03;5.07;;;;;;;2.53;95.74;100723.97;5071645;28;20029;-62
2021/12/07 03:43:40;;;;;;;22.57;4.60;;;;;;;2.46;95.63;100734.09;5072074;28;20511;-62
2021/12/07 03:46:06;;;;;;;25.10;5.50;;;;;;;2.41;95.49;100744.97;5063925;28;20020;-62
2021/12/07 03:48:32;;;;;;;30.30;4.93;;;;;;;2.34;95.66;100733.28;5070331;28;20727;-62
2021/12/07 03:50:57;;;;;;;19.83;4.53;;;;;;;2.33;95.55;100736.03;5070623;28;20066;-62
2021/12/07 03:53:23;;;;;;;23.77;4.90;;;;;;;2.30;95.75;100742.31;5069789;28;20028;-62
2021/12/07 03:55:48;;;;;;;24.03;4.73;;;;;;;2.28;95.77;100746.84;5071777;28;20082;-63
2021/12/07 03:58:14;;;;;;;23.40;5.10;;;;;;;2.24;96.03;100747.22;5070410;28;20062;-62
2021/12/07 04:00:44;;;;;;;24.90;4.43;;;;;;;2.21;96.13;100743.06;5069621;28;20032;-62
2021/12/07 04:03:12;;;;;;;22.23;5.07;;;;;;;2.20;95.86;100753.66;5069813;28;20063;-62
2021/12/07 04:05:45;;;;;;;27.27;4.60;;;;;;;2.17;95.85;100760.78;5075349;28;20114;-62
2021/12/07 04:08:12;;;;;;;22.80;4.37;;;;;;;2.15;95.84;100752.22;5076786;28;20426;-62
2021/12/07 04:10:37;;;;;;;25.57;4.70;;;;;;;2.16;96.25;100748.66;5070884;28;20547;-62
2021/12/07 04:13:03;;;;;;;24.53;4.77;;;;;;;2.17;96.44;100752.94;5070637;28;20095;-62
2021/12/07 04:15:28;;;;;;;20.73;4.80;;;;;;;2.21;96.36;100764.00;5069439;28;20039;-62
2021/12/07 04:17:54;;;;;;;22.73;4.63;;;;;;;2.18;96.28;100765.09;5070408;28;20024;-62
2021/12/07 04:20:20;;;;;;;20.30;4.30;;;;;;;2.17;96.37;100760.78;5071128;28;20388;-62
2021/12/07 04:22:46;;;;;;;26.30;4.83;;;;;;;2.14;96.16;100758.41;5067404;28;20529;-62
2021/12/07 04:25:14;;;;;;;23.37;4.27;;;;;;;2.12;96.32;100760.31;5069613;28;20047;-62
2021/12/07 04:27:39;;;;;;;27.00;4.10;;;;;;;2.04;96.23;100765.31;5068658;28;20031;-62
2021/12/07 04:30:18;;;;;;;25.67;4.87;;;;;;;2.02;95.99;100768.97;5070384;28;20028;-62
2021/12/07 04:32:43;;;;;;;19.90;4.32;;;;;;;1.95;95.81;100767.78;5069205;28;20032;-62
2021/12/07 04:35:10;;;;;;;20.77;4.50;;;;;;;1.95;95.92;100767.78;5068962;28;21383;-62
2021/12/07 04:37:37;;;;;;;26.73;4.60;;;;;;;1.96;96.51;100775.53;5068299;28;20590;-62
2021/12/07 04:40:04;;;;;;;25.27;5.23;;;;;;;1.99;96.63;100779.69;5069499;28;20024;-62
2021/12/07 04:42:29;;;;;;;19.33;4.70;;;;;;;1.97;96.56;100789.47;5065706;28;20024;-62
2021/12/07 04:44:59;;;;;;;24.30;4.87;;;;;;;1.97;96.58;100789.47;5069406;28;20035;-62
2021/12/07 04:47:40;;;;;;;20.42;4.38;;;;;;;1.90;96.27;100781.25;5068893;28;20514;-63
2021/12/07 04:58:18;;;;;;;20.93;4.60;;;;;;;1.98;97.15;100772.78;5068533;28;20100;-61
2021/12/07 05:00:43;;;;;;;23.10;4.90;;;;;;;1.98;96.74;100785.88;5067882;28;20040;-61
2021/12/07 05:03:12;;;;;;;17.63;4.30;;;;;;;2.00;96.95;100807.56;5068658;28;20088;-61
2021/12/07 05:05:39;;;;;;;16.88;3.97;;;;;;;1.99;96.81;100800.66;5068566;28;20107;-61
2021/12/07 05:08:08;;;;;;;25.70;4.37;;;;;;;1.96;96.52;100795.66;5067545;28;20423;-61
2021/12/07 05:10:49;;;;;;;23.40;4.15;;;;;;;1.93;96.76;100801.13;5068400;28;20235;-61
2021/12/07 05:34:35;;;;;;;20.70;3.70;;;;;;;2.08;96.49;100815.69;5066738;28;20043;-61
2021/12/07 05:40:05;;;;;;;19.80;4.10;;;;;;;2.06;96.31;100843.78;5068675;28;20632;-61
2021/12/07 05:42:30;;;;;;;20.30;3.70;;;;;;;2.06;96.46;100851.63;5065669;28;20577;-61
2021/12/07 05:44:56;;;;;;;24.67;3.50;;;;;;;2.05;96.39;100860.44;5068066;28;20168;-61
2021/12/07 05:47:22;;;;;;;19.03;3.80;;;;;;;2.06;96.47;100865.56;5067842;28;20031;-61
2021/12/07 05:49:47;;;;;;;20.33;3.90;;;;;;;2.04;96.51;100864.84;5067030;28;20023;-61
2021/12/07 05:52:13;;;;;;;22.73;3.30;;;;;;;2.08;96.42;100874.16;5068305;28;20029;-61
2021/12/07 05:54:38;;;;;;;23.07;4.03;;;;;;;2.11;96.74;100873.06;5068213;28;20024;-61
2021/12/07 05:57:05;;;;;;;23.83;3.83;;;;;;;2.15;96.91;100880.59;5068121;28;20021;-61
2021/12/07 05:59:30;;;;;;;22.10;3.40;;;;;;;2.16;96.42;100882.25;5064084;28;20055;-61
2021/12/07 06:01:56;;;;;;;24.90;3.97;;;;;;;2.16;96.34;100891.91;5067357;28;20614;-61
2021/12/07 06:04:21;;;;;;;20.53;3.30;;;;;;;2.19;96.46;100889.03;5067791;28;20111;-61
2021/12/07 06:06:46;;;;;;;22.30;3.40;;;;;;;2.17;96.42;100885.69;5067426;28;20856;-61
2021/12/07 06:09:12;;;;;;;20.07;3.90;;;;;;;2.21;96.37;100899.41;5066612;28;20020;-61
2021/12/07 06:11:37;;;;;;;20.37;4.00;;;;;;;2.18;96.50;100888.22;5067442;28;20031;-61
2021/12/07 06:14:02;;;;;;;20.57;3.80;;;;;;;2.14;96.60;100888.56;5067409;28;20404;-61
2021/12/07 06:16:30;;;;;;;21.97;4.07;;;;;;;2.10;96.22;100881.88;5067702;28;20031;-61
2021/12/07 06:18:56;;;;;;;20.50;3.90;;;;;;;2.02;96.20;100879.81;5066604;28;20029;-61
2021/12/07 06:21:22;;;;;;;23.03;3.70;;;;;;;1.95;96.19;100869.91;5067025;28;20051;-61
2021/12/07 06:23:47;;;;;;;23.03;3.83;;;;;;;1.95;96.27;100872.53;5062305;28;20032;-61
2021/12/07 06:26:13;;;;;;;25.27;4.27;;;;;;;1.91;96.05;100871.94;5065044;28;20490;-61
2021/12/07 06:28:38;;;;;;;19.07;3.83;;;;;;;1.89;96.41;100884.31;5066850;28;20017;-61
2021/12/07 06:31:04;;;;;;;22.57;4.00;;;;;;;1.83;96.18;100882.16;5067849;28;20021;-61
2021/12/07 06:33:29;;;;;;;19.40;4.40;;;;;;;1.81;96.29;100889.28;5068044;28;20578;-61
2021/12/07 06:35:58;;;;;;;21.17;4.50;;;;;;;1.72;96.56;100890.78;5065045;28;20441;-61
2021/12/07 06:38:28;;;;;;;21.83;4.90;;;;;;;1.71;96.29;100890.88;5066518;28;20017;-61
2021/12/07 06:40:54;;;;;;;26.03;4.30;;;;;;;1.65;96.34;100892.19;5066830;28;20024;-61
2021/12/07 06:43:21;;;;;;;24.47;4.40;;;;;;;1.60;96.55;100883.00;5067177;28;20113;-61
2021/12/07 06:45:47;;;;;;;21.30;4.83;;;;;;;1.60;96.30;100896.91;5067126;28;20050;-61
2021/12/07 06:48:12;;;;;;;22.10;5.00;;;;;;;1.57;96.70;100891.91;5066146;28;20028;-61
2021/12/07 06:50:38;;;;;;;25.13;5.43;;;;;;;1.56;96.69;100895.47;5066903;28;20028;-61
2021/12/07 06:53:03;;;;;;;24.03;6.07;;;;;;;1.53;96.68;100888.69;5067619;28;20480;-61
2021/12/07 06:55:29;;;;;;;31.77;6.70;;;;;;;1.52;96.95;100907.94;5063803;28;20056;-61
2021/12/07 06:57:54;;;;;;;27.10;7.50;;;;;;;1.49;96.83;100902.94;5066236;28;20029;-61
2021/12/07 07:00:21;;;;;;;24.00;7.60;;;;;;;1.45;96.83;100901.50;5066981;28;20041;-61
2021/12/07 07:02:46;;;;;;;37.13;8.83;;;;;;;1.42;97.03;100896.47;5067341;28;20107;-61
2021/12/07 07:05:12;;;;;;;27.03;8.77;;;;;;;1.41;97.03;100909.66;5066885;28;20111;-61
2021/12/07 07:07:39;;;;;;;30.73;9.93;;;;;;;1.41;97.08;100912.28;5066989;28;20028;-61
2021/12/07 07:10:05;;;;;;;31.03;9.80;;;;;;;1.37;97.17;100913.44;5066142;28;20025;-61
2021/12/07 07:12:31;;;;;;;38.00;11.23;;;;;;;1.39;97.35;100912.38;5061452;28;20021;-61
2021/12/07 07:14:56;;;;;;;27.77;11.03;;;;;;;1.37;97.22;100918.66;5067026;28;20094;-61
2021/12/07 07:17:21;;;;;;;34.07;11.00;;;;;;;1.34;97.40;100911.88;5067120;28;20032;-61
2021/12/07 07:19:47;;;;;;;35.27;10.00;;;;;;;1.29;97.28;100914.00;5065792;28;20048;-61
2021/12/07 07:22:13;;;;;;;39.20;11.40;;;;;;;1.30;97.30;100912.22;5066897;28;20051;-61
2021/12/07 07:24:39;;;;;;;35.83;11.40;;;;;;;1.30;97.42;100905.19;5066587;28;20032;-61
2021/12/07 07:27:05;;;;;;;28.23;11.27;;;;;;;1.24;97.25;100909.09;5067048;28;20052;-61
2021/12/07 07:29:30;;;;;;;32.93;12.10;;;;;;;1.23;96.97;100917.06;5066681;28;20121;-61
2021/12/07 07:31:56;;;;;;;34.27;11.90;;;;;;;1.19;97.44;100921.66;5066953;28;20032;-61
2021/12/07 07:34:21;;;;;;;42.33;13.63;;;;;;;1.22;97.63;100920.63;5069274;28;20480;-61
2021/12/07 07:36:47;;;;;;;37.93;13.47;;;;;;;1.24;97.93;100934.41;5070104;28;20032;-61
2021/12/07 07:39:13;;;;;;;42.30;13.57;;;;;;;1.26;97.77;100934.31;5070296;28;20028;-61
2021/12/07 07:41:38;;;;;;;40.30;12.93;;;;;;;1.27;97.89;100935.97;5067037;28;20031;-61
2021/12/07 07:44:04;;;;;;;32.90;12.83;;;;;;;1.29;98.02;100932.31;5066390;28;20028;-61
2021/12/07 07:46:30;;;;;;;43.53;13.90;;;;;;;1.32;97.88;100934.69;5071398;28;20032;-61
2021/12/07 07:48:55;;;;;;;49.03;14.23;;;;;;;1.33;98.09;100933.75;5067339;28;20047;-61
2021/12/07 07:51:21;;;;;;;50.77;13.60;;;;;;;1.33;98.02;100923.28;5071969;28;20036;-61
2021/12/07 07:53:46;;;;;;;43.40;13.10;;;;;;;1.32;97.31;100921.63;5070818;28;20411;-61
2021/12/07 07:56:11;;;;;;;46.23;11.73;;;;;;;1.30;97.83;100920.06;5071188;28;20081;-61
2021/12/07 07:58:37;;;;;;;39.73;13.17;;;;;;;1.33;97.76;100918.06;5070274;28;20610;-61
2021/12/07 08:01:03;;;;;;;38.07;13.17;;;;;;;1.36;97.86;100911.78;5071600;28;20020;-61
2021/12/07 08:03:28;;;;;;;35.27;12.67;;;;;;;1.35;98.13;100912.72;5070027;28;20104;-61
2021/12/07 08:05:54;;;;;;;36.40;12.73;;;;;;;1.32;98.04;100916.38;5075984;28;20103;-61
2021/12/07 08:08:22;;;;;;;45.60;13.17;;;;;;;1.32;97.86;100916.38;5070587;28;20510;-61
2021/12/07 08:10:47;;;;;;;42.33;13.03;;;;;;;1.31;97.84;100912.09;5071986;28;20024;-61
2021/12/07 08:13:14;;;;;;;41.53;12.50;;;;;;;1.36;98.05;100923.06;5070409;28;20066;-61
2021/12/07 08:15:43;;;;;;;39.07;12.37;;;;;;;1.38;97.93;100918.56;5070490;28;20439;-63
2021/12/07 08:18:09;;;;;;;51.20;13.23;;;;;;;1.43;97.87;100924.28;5069030;28;20020;-60
2021/12/07 08:20:35;;;;;;;39.90;12.40;;;;;;;1.43;97.94;100924.28;5071234;28;20024;-61
2021/12/07 08:23:04;;;;;;;40.00;12.07;;;;;;;1.48;98.17;100930.06;5070510;28;20068;-60
2021/12/07 08:25:30;;;;;;;45.53;11.95;;;;;;;1.52;98.00;100933.28;5070840;28;20032;-60
2021/12/07 08:27:56;;;;;;;49.17;12.97;;;;;;;1.57;97.91;100946.03;5064149;28;20033;-61
2021/12/07 08:30:21;;;;;;;39.93;13.60;;;;;;;1.63;98.09;100935.13;5063172;28;20163;-60
2021/12/07 08:32:47;;;;;;;42.60;12.77;;;;;;;1.66;98.19;100935.72;5070411;28;20031;-60
2021/12/07 08:35:15;;;;;;;36.90;12.40;;;;;;;1.69;97.91;100938.13;5070898;28;20032;-60
2021/12/07 08:37:41;;;;;;;35.87;12.23;;;;;;;1.73;97.84;100942.19;5067900;28;20070;-60
2021/12/07 08:40:09;;;;;;;37.77;10.90;;;;;;;1.74;97.92;100941.28;5068121;28;20068;-60
2021/12/07 08:42:35;;;;;;;41.93;12.27;;;;;;;1.74;97.51;100938.66;5052577;28;20423;-60
2021/12/07 08:45:00;;;;;;;33.90;11.43;;;;;;;1.79;97.62;100940.94;5070785;28;20016;-60
2021/12/07 08:47:26;;;;;;;36.53;11.60;;;;;;;1.78;97.28;100947.13;5069341;28;20491;-60
2021/12/07 08:49:54;;;;;;;30.93;11.33;;;;;;;1.75;97.51;100942.94;5069718;28;20051;-60
2021/12/07 08:52:19;;;;;;;37.00;11.37;;;;;;;1.74;97.35;100951.75;5070011;28;20028;-60
2021/12/07 08:59:54;;;;;;;29.20;10.30;;;;;;;1.79;97.15;100938.31;5069781;28;20506;-61
2021/12/07 09:02:24;;;;;;;34.33;10.30;;;;;;;1.82;97.05;100930.22;5070006;28;20024;-60
2021/12/07 09:04:53;;;;;;;22.23;9.30;;;;;;;1.82;97.02;100925.84;5069816;28;20029;-60
2021/12/07 09:07:19;;;;;;;28.47;9.20;;;;;;;1.88;97.18;100929.78;5070058;28;20040;-60
2021/12/07 09:09:44;;;;;;;28.60;8.93;;;;;;;1.91;96.95;100919.06;5068543;28;20126;-60
2021/12/07 09:12:12;;;;;;;27.10;8.90;;;;;;;1.94;96.94;100931.94;5069928;28;20099;-60
2021/12/07 09:14:38;;;;;;;25.77;8.53;;;;;;;1.97;96.74;100929.09;5068790;28;20024;-60
2021/12/07 09:17:05;;;;;;;29.50;8.33;;;;;;;1.99;96.67;100918.50;5070390;28;20028;-60
2021/12/07 09:19:32;;;;;;;28.67;8.70;;;;;;;2.02;96.51;100921.72;5068807;28;20100;-60
2021/12/07 09:21:58;;;;;;;21.77;8.47;;;;;;;2.02;96.59;100926.97;5069926;28;20088;-60
2021/12/07 09:24:24;;;;;;;19.97;7.60;;;;;;;2.05;96.29;100921.53;5069290;28;20444;-60
2021/12/07 09:26:49;;;;;;;21.83;7.77;;;;;;;2.09;96.11;100925.59;5070332;28;20060;-61
2021/12/07 09:29:15;;;;;;;17.93;7.40;;;;;;;2.10;96.17;100922.00;5068741;28;20059;-60
2021/12/07 09:31:41;;;;;;;26.00;7.67;;;;;;;2.11;96.10;100915.81;5069485;28;20534;-60
2021/12/07 09:34:07;;;;;;;23.03;7.53;;;;;;;2.17;96.22;100931.06;5069136;28;20153;-61
2021/12/07 09:36:34;;;;;;;21.40;7.23;;;;;;;2.22;96.16;100933.34;5066297;28;20021;-61
2021/12/07 09:38:59;;;;;;;21.90;7.50;;;;;;;2.28;96.03;100926.81;5065868;28;20552;-60
2021/12/07 09:41:25;;;;;;;25.43;7.37;;;;;;;2.30;95.84;100920.50;5068908;28;20032;-61
2021/12/07 09:43:52;;;;;;;23.77;7.43;;;;;;;2.39;95.88;100927.69;5068831;28;20494;-60
2021/12/07 09:46:18;;;;;;;19.77;6.83;;;;;;;2.41;95.71;100923.16;5069395;28;20039;-60
2021/12/07 09:48:45;;;;;;;19.10;6.43;;;;;;;2.51;95.55;100919.84;5068012;28;20479;-60
2021/12/07 09:51:12;;;;;;;17.00;6.23;;;;;;;2.53;95.34;100923.16;5069702;28;20028;-61
2021/12/07 09:53:38;;;;;;;21.40;6.63;;;;;;;2.55;95.24;100935.22;5051172;28;20079;-60
2021/12/07 09:56:06;;;;;;;20.07;6.00;;;;;;;2.60;94.89;100930.47;5068753;28;20391;-60
2021/12/07 09:58:31;;;;;;;22.67;6.70;;;;;;;2.65;95.08;100930.13;5067864;28;20025;-61
2021/12/07 10:00:57;;;;;;;20.00;5.73;;;;;;;2.67;94.74;100929.03;5068967;28;20463;-60
2021/12/07 10:03:23;;;;;;;24.03;6.70;;;;;;;2.74;94.63;100922.38;5068699;28;20111;-60
2021/12/07 10:05:49;;;;;;;23.93;6.50;;;;;;;2.77;94.78;100914.25;5068443;28;20508;-60
2021/12/07 10:08:15;;;;;;;24.57;6.50;;;;;;;2.85;94.69;100912.81;5068110;28;20027;-60
2021/12/07 10:11:02;;;;;;;19.10;6.27;;;;;;;2.89;94.39;100911.63;5068788;28;20025;-60
2021/12/07 10:13:30;;;;;;;20.07;5.70;;;;;;;2.92;94.33;100921.91;5059813;28;20032;-61
2021/12/07 10:15:59;;;;;;;22.27;6.37;;;;;;;2.99;94.47;100923.09;5068058;28;20483;-61
2021/12/07 10:18:27;;;;;;;19.43;6.17;;;;;;;3.04;94.25;100923.56;5068157;28;20039;-61
2021/12/07 10:21:01;;;;;;;22.47;6.40;;;;;;;3.09;94.22;100917.00;5068763;28;20535;-61
2021/12/07 10:23:36;;;;;;;20.73;5.80;;;;;;;3.15;94.05;100907.81;5068679;28;20062;-61
2021/12/07 10:26:14;;;;;;;16.90;6.10;;;;;;;3.19;94.01;100911.88;5069243;28;20029;-61
2021/12/07 10:28:43;;;;;;;20.80;5.93;;;;;;;3.26;94.06;100913.06;5067776;28;20115;-60
2021/12/07 10:31:29;;;;;;;22.33;5.80;;;;;;;3.29;93.79;100910.19;5068275;28;20024;-61
2021/12/07 10:34:16;;;;;;;20.77;6.00;;;;;;;3.33;93.41;100906.34;5055327;28;20903;-61
2021/12/07 10:36:42;;;;;;;20.37;6.10;;;;;;;3.41;93.46;100898.69;5064917;28;20032;-61
2021/12/07 10:39:23;;;;;;;20.67;6.00;;;;;;;3.45;93.29;100899.28;5057182;28;20033;-63
2021/12/07 10:41:59;;;;;;;15.70;5.40;;;;;;;3.48;92.87;100887.72;5060976;28;20129;-63
2021/12/07 10:44:27;;;;;;;16.17;5.30;;;;;;;3.49;92.50;100890.22;5066520;28;20024;-63
2021/12/07 10:47:00;;;;;;;19.43;5.67;;;;;;;3.52;92.31;100878.63;5064597;28;20185;-63
2021/12/07 10:49:30;;;;;;;19.60;5.57;;;;;;;3.57;92.49;100874.69;5066726;28;20036;-63
2021/12/07 10:51:55;;;;;;;;;;;;;;;3.62;92.00;100859.38;5068447;28;20073;-63
2021/12/07 10:54:22;;;;;;;18.00;5.68;;;;;;;3.66;92.06;100863.41;5067658;28;19916;-63
2021/12/07 10:56:47;;;;;;;21.80;5.63;;;;;;;3.67;91.85;100846.69;5068289;28;20028;-63
2021/12/07 10:59:13;;;;;;;19.10;5.57;;;;;;;3.75;91.83;100846.06;5067375;28;20035;-63
2021/12/07 11:01:46;;;;;;;19.70;6.03;;;;;;;3.77;91.38;100835.47;5068256;28;20158;-63
2021/12/07 11:04:23;;;;;;;19.17;5.93;;;;;;;3.81;91.05;100824.56;5067780;28;20093;-63
2021/12/07 11:07:20;;;;;;;26.47;6.07;;;;;;;3.87;91.27;100820.59;5067457;28;20395;-63
2021/12/07 11:10:08;;;;;;;23.47;5.93;;;;;;;3.99;90.83;100828.25;5071124;28;20082;-63
2021/12/07 11:12:47;;;;;;;15.87;5.67;;;;;;;4.04;90.44;100833.97;5062647;28;20024;-63
2021/12/07 11:15:19;;;;;;;22.45;5.60;;;;;;;4.07;90.45;100825.03;5066849;28;20039;-64
2021/12/07 11:17:45;;;;;;;19.10;5.37;;;;;;;4.12;90.34;100811.50;5067582;28;20040;-63
2021/12/07 11:20:13;;;;;;;22.53;5.60;;;;;;;4.15;89.89;100822.56;5071975;28;20028;-63
2021/12/07 11:22:45;;;;;;;20.20;5.83;;;;;;;4.17;89.31;100818.00;5061315;28;20052;-63
2021/12/07 11:25:14;;;;;;;21.83;5.90;;;;;;;4.26;89.58;100800.63;5069835;28;20047;-63
2021/12/07 11:30:31;;;;;;;16.53;4.57;;;;;;;4.45;89.13;100800.72;5071833;28;20110;-63
2021/12/07 11:32:59;;;;;;;14.57;4.63;;;;;;;4.49;88.59;100801.28;5072288;28;20048;-64
2021/12/07 11:35:33;;;;;;;15.40;4.70;;;;;;;4.53;87.97;100803.50;5070126;28;20035;-63
2021/12/07 11:38:00;;;;;;;19.80;5.60;;;;;;;4.61;88.09;100803.66;5068312;28;20058;-63
2021/12/07 11:40:35;;;;;;;20.23;5.10;;;;;;;4.71;88.07;100801.09;5070825;28;20031;-63
2021/12/07 11:43:02;;;;;;;23.53;5.43;;;;;;;4.81;88.09;100791.41;5070189;28;20119;-63
2021/12/07 11:45:33;;;;;;;17.50;4.50;;;;;;;4.92;87.41;100795.75;5071630;28;20512;-63
2021/12/07 11:48:02;;;;;;;18.40;4.97;;;;;;;4.95;86.89;100783.16;5070046;28;20044;-63
2021/12/07 11:50:38;;;;;;;20.10;5.22;;;;;;;5.01;86.86;100773.06;5071412;28;20107;-63
2021/12/07 11:53:06;;;;;;;18.93;4.57;;;;;;;5.09;85.52;100778.47;5070001;28;20475;-63
2021/12/07 11:55:33;;;;;;;16.27;4.63;;;;;;;5.14;85.73;100784.97;5070090;28;20527;-63
2021/12/07 11:58:00;;;;;;;16.87;5.13;;;;;;;5.19;85.15;100776.66;5070942;28;20028;-63
2021/12/07 12:00:34;;;;;;;16.97;4.83;;;;;;;5.23;83.95;100780.72;5074689;28;20036;-63
2021/12/07 12:03:09;;;;;;;18.93;5.00;;;;;;;5.27;83.91;100776.81;5070685;28;20039;-63
2021/12/07 12:05:38;;;;;;;15.63;5.17;;;;;;;5.34;83.68;100766.56;5069465;28;20064;-63
2021/12/07 12:08:08;;;;;;;12.17;4.67;;;;;;;5.40;83.19;100758.09;5069426;28;20121;-63
2021/12/07 12:10:39;;;;;;;15.13;5.07;;;;;;;5.41;82.76;100762.41;5066743;28;20028;-63
2021/12/07 12:13:15;;;;;;;17.80;5.13;;;;;;;5.45;82.09;100751.44;5069756;28;20036;-63
2021/12/07 12:16:18;;;;;;;13.27;4.63;;;;;;;5.42;82.23;100756.16;5062089;28;20520;-63
2021/12/07 12:18:49;;;;;;;15.87;4.93;;;;;;;5.44;81.64;100743.69;5069478;28;20029;-63
2021/12/07 12:21:33;;;;;;;15.93;5.67;;;;;;;5.44;81.65;100733.97;5070663;28;20415;-64
2021/12/07 12:24:28;;;;;;;17.33;6.23;;;;;;;5.43;81.55;100728.84;5070386;28;20032;-64
2021/12/07 12:27:10;;;;;;;19.20;6.27;;;;;;;5.35;80.95;100715.56;5059395;28;20119;-63
2021/12/07 12:29:37;;;;;;;19.30;6.50;;;;;;;5.34;80.91;100706.00;5070011;28;20028;-64
2021/12/07 12:32:04;;;;;;;24.43;6.30;;;;;;;5.36;80.59;100709.31;5069969;28;20029;-64
2021/12/07 12:34:34;;;;;;;19.30;6.57;;;;;;;5.36;80.96;100704.88;5061858;28;20112;-63
2021/12/07 12:37:09;;;;;;;19.63;5.93;;;;;;;5.47;80.71;100702.09;5069806;28;20031;-63
2021/12/07 12:39:47;;;;;;;21.77;5.63;;;;;;;5.45;80.28;100696.13;5056024;28;20020;-64
2021/12/07 12:42:31;;;;;;;19.73;6.43;;;;;;;5.52;80.30;100686.72;5070419;28;20107;-64
2021/12/07 12:45:13;;;;;;;16.73;5.20;;;;;;;5.66;80.42;100688.06;5058915;28;20029;-64
2021/12/07 12:47:39;;;;;;;22.23;4.97;;;;;;;5.73;80.60;100677.78;5065627;28;20154;-62
2021/12/07 12:50:17;;;;;;;15.97;4.77;;;;;;;5.67;79.98;100671.28;5069824;28;20054;-63
2021/12/07 12:52:50;;;;;;;21.93;5.27;;;;;;;5.78;80.84;100667.63;5070475;28;20029;-63
2021/12/07 12:55:29;;;;;;;15.43;4.50;;;;;;;5.89;80.51;100652.53;5070154;28;20127;-63
2021/12/07 12:57:55;;;;;;;14.77;4.38;;;;;;;5.84;80.73;100638.09;5069668;28;20028;-64